sensor_id;sensor_type;location;lat;lon;timestamp;temperature;humidity
59301;DHT22;45073;52.740;6.784;2023-09-19T00:00:45;15.50;99.90
59301;DHT22;45073;52.740;6.784;2023-09-19T00:03:12;15.50;99.90
59301;DHT22;45073;52.740;6.784;2023-09-19T00:05:38;15.40;99.90
59301;DHT22;45073;52.740;6.784;2023-09-19T00:08:04;15.40;99.90
59301;DHT22;45073;52.740;6.784;2023-09-19T00:10:32;15.30;99.90
59301;DHT22;45073;52.740;6.784;2023-09-19T00:13:01;15.20;99.90
59301;DHT22;45073;52.740;6.784;2023-09-19T00:15:40;15.10;99.90
59301;DHT22;45073;52.740;6.784;2023-09-19T00:18:07;15.10;99.90
59301;DHT22;45073;52.740;6.784;2023-09-19T00:20:36;15.00;99.90
59301;DHT22;45073;52.740;6.784;2023-09-19T00:23:01;15.00;99.90
59301;DHT22;45073;52.740;6.784;2023-09-19T00:25:29;15.00;99.90
59301;DHT22;45073;52.740;6.784;2023-09-19T00:27:55;14.90;99.90
59301;DHT22;45073;52.740;6.784;2023-09-19T00:30:21;14.80;99.90
59301;DHT22;45073;52.740;6.784;2023-09-19T00:32:47;14.80;99.90
59301;DHT22;45073;52.740;6.784;2023-09-19T00:35:14;14.80;99.90
59301;DHT22;45073;52.740;6.784;2023-09-19T00:37:41;14.90;99.90
59301;DHT22;45073;52.740;6.784;2023-09-19T00:40:08;14.80;99.90
59301;DHT22;45073;52.740;6.784;2023-09-19T00:42:42;14.80;99.90
59301;DHT22;45073;52.740;6.784;2023-09-19T00:45:09;14.80;99.90
59301;DHT22;45073;52.740;6.784;2023-09-19T00:47:37;14.80;99.90
59301;DHT22;45073;52.740;6.784;2023-09-19T00:50:04;14.80;99.90
59301;DHT22;45073;52.740;6.784;2023-09-19T00:52:36;14.80;99.90
59301;DHT22;45073;52.740;6.784;2023-09-19T00:55:08;14.80;99.90
59301;DHT22;45073;52.740;6.784;2023-09-19T00:57:35;14.80;99.90
59301;DHT22;45073;52.740;6.784;2023-09-19T01:00:02;14.80;99.90
59301;DHT22;45073;52.740;6.784;2023-09-19T01:02:33;14.80;99.90
59301;DHT22;45073;52.740;6.784;2023-09-19T01:04:59;14.70;99.90
59301;DHT22;45073;52.740;6.784;2023-09-19T01:07:30;14.70;99.90
59301;DHT22;45073;52.740;6.784;2023-09-19T01:10:03;14.70;99.90
59301;DHT22;45073;52.740;6.784;2023-09-19T01:15:22;14.70;99.90
59301;DHT22;45073;52.740;6.784;2023-09-19T01:20:57;14.70;99.90
59301;DHT22;45073;52.740;6.784;2023-09-19T01:32:03;14.70;99.90
59301;DHT22;45073;52.740;6.784;2023-09-19T01:34:54;14.70;99.90
59301;DHT22;45073;52.740;6.784;2023-09-19T01:37:22;14.80;99.90
59301;DHT22;45073;52.740;6.784;2023-09-19T01:47:54;14.70;99.90
59301;DHT22;45073;52.740;6.784;2023-09-19T01:52:57;14.70;99.90
59301;DHT22;45073;52.740;6.784;2023-09-19T01:55:28;14.70;99.90
59301;DHT22;45073;52.740;6.784;2023-09-19T01:58:00;14.60;99.90
59301;DHT22;45073;52.740;6.784;2023-09-19T02:00:26;14.60;99.90
59301;DHT22;45073;52.740;6.784;2023-09-19T02:02:53;14.60;99.90
59301;DHT22;45073;52.740;6.784;2023-09-19T02:05:25;14.60;99.90
59301;DHT22;45073;52.740;6.784;2023-09-19T02:07:51;14.70;99.90
59301;DHT22;45073;52.740;6.784;2023-09-19T02:10:18;14.60;99.90
59301;DHT22;45073;52.740;6.784;2023-09-19T02:12:44;14.60;99.90
59301;DHT22;45073;52.740;6.784;2023-09-19T02:15:10;14.60;99.90
59301;DHT22;45073;52.740;6.784;2023-09-19T02:17:36;14.50;99.90
59301;DHT22;45073;52.740;6.784;2023-09-19T02:20:02;14.50;99.90
59301;DHT22;45073;52.740;6.784;2023-09-19T02:22:29;14.50;99.90
59301;DHT22;45073;52.740;6.784;2023-09-19T02:24:55;14.50;99.90
59301;DHT22;45073;52.740;6.784;2023-09-19T02:27:23;14.50;99.90
59301;DHT22;45073;52.740;6.784;2023-09-19T02:29:49;14.50;99.90
59301;DHT22;45073;52.740;6.784;2023-09-19T02:32:15;14.50;99.90
59301;DHT22;45073;52.740;6.784;2023-09-19T02:34:43;14.40;99.90
59301;DHT22;45073;52.740;6.784;2023-09-19T02:37:10;14.40;99.90
59301;DHT22;45073;52.740;6.784;2023-09-19T02:39:35;14.40;99.90
59301;DHT22;45073;52.740;6.784;2023-09-19T02:42:01;14.30;99.90
59301;DHT22;45073;52.740;6.784;2023-09-19T02:44:29;14.20;99.90
59301;DHT22;45073;52.740;6.784;2023-09-19T02:46:55;14.30;99.90
59301;DHT22;45073;52.740;6.784;2023-09-19T02:49:20;14.30;99.90
59301;DHT22;45073;52.740;6.784;2023-09-19T02:51:46;14.30;99.90
59301;DHT22;45073;52.740;6.784;2023-09-19T02:54:13;14.30;99.90
59301;DHT22;45073;52.740;6.784;2023-09-19T02:56:39;14.30;99.90
59301;DHT22;45073;52.740;6.784;2023-09-19T02:59:04;14.30;99.90
59301;DHT22;45073;52.740;6.784;2023-09-19T03:01:31;14.30;99.90
59301;DHT22;45073;52.740;6.784;2023-09-19T03:03:57;14.30;99.90
59301;DHT22;45073;52.740;6.784;2023-09-19T03:06:23;14.20;99.90
59301;DHT22;45073;52.740;6.784;2023-09-19T03:08:49;14.20;99.90
59301;DHT22;45073;52.740;6.784;2023-09-19T03:11:17;14.20;99.90
59301;DHT22;45073;52.740;6.784;2023-09-19T03:13:50;14.20;99.90
59301;DHT22;45073;52.740;6.784;2023-09-19T03:16:16;14.20;99.90
59301;DHT22;45073;52.740;6.784;2023-09-19T03:18:42;14.20;99.90
59301;DHT22;45073;52.740;6.784;2023-09-19T03:21:07;14.20;99.90
59301;DHT22;45073;52.740;6.784;2023-09-19T03:23:33;14.20;99.90
59301;DHT22;45073;52.740;6.784;2023-09-19T03:25:58;14.20;99.90
59301;DHT22;45073;52.740;6.784;2023-09-19T03:28:24;14.20;99.90
59301;DHT22;45073;52.740;6.784;2023-09-19T03:31:06;14.20;99.90
59301;DHT22;45073;52.740;6.784;2023-09-19T03:33:32;14.20;99.90
59301;DHT22;45073;52.740;6.784;2023-09-19T03:36:00;14.20;99.90
59301;DHT22;45073;52.740;6.784;2023-09-19T03:38:26;14.10;99.90
59301;DHT22;45073;52.740;6.784;2023-09-19T03:40:53;14.20;99.90
59301;DHT22;45073;52.740;6.784;2023-09-19T03:43:19;14.20;99.90
59301;DHT22;45073;52.740;6.784;2023-09-19T03:45:44;14.20;99.90
59301;DHT22;45073;52.740;6.784;2023-09-19T03:48:12;14.20;99.90
59301;DHT22;45073;52.740;6.784;2023-09-19T03:50:38;14.20;99.90
59301;DHT22;45073;52.740;6.784;2023-09-19T03:53:04;14.30;99.90
59301;DHT22;45073;52.740;6.784;2023-09-19T03:55:30;14.30;99.90
59301;DHT22;45073;52.740;6.784;2023-09-19T03:57:56;14.40;99.90
59301;DHT22;45073;52.740;6.784;2023-09-19T04:00:22;14.40;99.90
59301;DHT22;45073;52.740;6.784;2023-09-19T04:02:51;14.40;99.90
59301;DHT22;45073;52.740;6.784;2023-09-19T04:05:16;14.40;99.90
59301;DHT22;45073;52.740;6.784;2023-09-19T04:07:42;14.50;99.90
59301;DHT22;45073;52.740;6.784;2023-09-19T04:10:08;14.50;99.90
59301;DHT22;45073;52.740;6.784;2023-09-19T04:12:35;14.40;99.90
59301;DHT22;45073;52.740;6.784;2023-09-19T04:15:01;14.40;99.90
59301;DHT22;45073;52.740;6.784;2023-09-19T04:17:26;14.50;99.90
59301;DHT22;45073;52.740;6.784;2023-09-19T04:19:52;14.50;99.90
59301;DHT22;45073;52.740;6.784;2023-09-19T04:22:18;14.50;99.90
59301;DHT22;45073;52.740;6.784;2023-09-19T04:24:44;14.50;99.90
59301;DHT22;45073;52.740;6.784;2023-09-19T04:27:10;14.40;99.90
59301;DHT22;45073;52.740;6.784;2023-09-19T04:29:37;14.40;99.90
59301;DHT22;45073;52.740;6.784;2023-09-19T04:32:05;14.40;99.90
59301;DHT22;45073;52.740;6.784;2023-09-19T04:34:31;14.40;99.90
59301;DHT22;45073;52.740;6.784;2023-09-19T04:36:56;14.50;99.90
59301;DHT22;45073;52.740;6.784;2023-09-19T04:39:23;14.40;99.90
59301;DHT22;45073;52.740;6.784;2023-09-19T04:41:51;14.40;99.90
59301;DHT22;45073;52.740;6.784;2023-09-19T04:44:17;14.40;99.90
59301;DHT22;45073;52.740;6.784;2023-09-19T04:46:44;14.40;99.90
59301;DHT22;45073;52.740;6.784;2023-09-19T04:49:09;14.40;99.90
59301;DHT22;45073;52.740;6.784;2023-09-19T04:51:35;14.40;99.90
59301;DHT22;45073;52.740;6.784;2023-09-19T04:54:01;14.40;99.90
59301;DHT22;45073;52.740;6.784;2023-09-19T04:56:28;14.40;99.90
59301;DHT22;45073;52.740;6.784;2023-09-19T04:58:54;14.40;99.90
59301;DHT22;45073;52.740;6.784;2023-09-19T05:01:20;14.40;99.90
59301;DHT22;45073;52.740;6.784;2023-09-19T05:03:48;14.40;99.90
59301;DHT22;45073;52.740;6.784;2023-09-19T05:06:21;14.40;99.90
59301;DHT22;45073;52.740;6.784;2023-09-19T05:08:50;14.40;99.90
59301;DHT22;45073;52.740;6.784;2023-09-19T05:11:19;14.40;99.90
59301;DHT22;45073;52.740;6.784;2023-09-19T05:13:47;14.40;99.90
59301;DHT22;45073;52.740;6.784;2023-09-19T05:16:12;14.30;99.90
59301;DHT22;45073;52.740;6.784;2023-09-19T05:18:38;14.30;99.90
59301;DHT22;45073;52.740;6.784;2023-09-19T05:21:03;14.30;99.90
59301;DHT22;45073;52.740;6.784;2023-09-19T05:23:29;14.30;99.90
59301;DHT22;45073;52.740;6.784;2023-09-19T05:25:55;14.30;99.90
59301;DHT22;45073;52.740;6.784;2023-09-19T05:28:22;14.30;99.90
59301;DHT22;45073;52.740;6.784;2023-09-19T05:30:48;14.30;99.90
59301;DHT22;45073;52.740;6.784;2023-09-19T05:33:14;14.20;99.90
59301;DHT22;45073;52.740;6.784;2023-09-19T05:35:40;14.20;99.90
59301;DHT22;45073;52.740;6.784;2023-09-19T05:38:07;14.20;99.90
59301;DHT22;45073;52.740;6.784;2023-09-19T05:40:38;14.10;99.90
59301;DHT22;45073;52.740;6.784;2023-09-19T05:43:06;14.10;99.90
59301;DHT22;45073;52.740;6.784;2023-09-19T05:45:31;14.10;99.90
59301;DHT22;45073;52.740;6.784;2023-09-19T05:48:10;14.00;99.90
59301;DHT22;45073;52.740;6.784;2023-09-19T05:50:37;14.00;99.90
59301;DHT22;45073;52.740;6.784;2023-09-19T05:53:04;14.00;99.90
59301;DHT22;45073;52.740;6.784;2023-09-19T05:55:30;14.00;99.90
59301;DHT22;45073;52.740;6.784;2023-09-19T05:57:56;13.90;99.90
59301;DHT22;45073;52.740;6.784;2023-09-19T06:00:23;13.90;99.90
59301;DHT22;45073;52.740;6.784;2023-09-19T06:02:56;14.00;99.90
59301;DHT22;45073;52.740;6.784;2023-09-19T06:05:26;14.00;99.90
59301;DHT22;45073;52.740;6.784;2023-09-19T06:07:52;14.00;99.90
59301;DHT22;45073;52.740;6.784;2023-09-19T06:10:18;14.00;99.90
59301;DHT22;45073;52.740;6.784;2023-09-19T06:12:46;14.00;99.90
59301;DHT22;45073;52.740;6.784;2023-09-19T06:15:13;14.10;99.90
59301;DHT22;45073;52.740;6.784;2023-09-19T06:17:54;14.10;99.90
59301;DHT22;45073;52.740;6.784;2023-09-19T06:20:24;14.10;99.90
59301;DHT22;45073;52.740;6.784;2023-09-19T06:22:51;14.10;99.90
59301;DHT22;45073;52.740;6.784;2023-09-19T06:25:17;14.10;99.90
59301;DHT22;45073;52.740;6.784;2023-09-19T06:27:47;14.10;99.90
59301;DHT22;45073;52.740;6.784;2023-09-19T06:30:13;14.10;99.90
59301;DHT22;45073;52.740;6.784;2023-09-19T06:32:43;14.20;99.90
59301;DHT22;45073;52.740;6.784;2023-09-19T06:35:13;14.20;99.90
59301;DHT22;45073;52.740;6.784;2023-09-19T06:37:40;14.20;99.90
59301;DHT22;45073;52.740;6.784;2023-09-19T06:40:13;14.20;99.90
59301;DHT22;45073;52.740;6.784;2023-09-19T06:43:00;14.20;99.90
59301;DHT22;45073;52.740;6.784;2023-09-19T06:45:28;14.20;99.90
59301;DHT22;45073;52.740;6.784;2023-09-19T06:47:54;14.20;99.90
59301;DHT22;45073;52.740;6.784;2023-09-19T06:50:23;14.20;99.90
59301;DHT22;45073;52.740;6.784;2023-09-19T06:52:50;14.20;99.90
59301;DHT22;45073;52.740;6.784;2023-09-19T06:55:18;14.30;99.90
59301;DHT22;45073;52.740;6.784;2023-09-19T06:57:45;14.30;99.90
59301;DHT22;45073;52.740;6.784;2023-09-19T07:00:12;14.30;99.90
59301;DHT22;45073;52.740;6.784;2023-09-19T07:03:05;14.30;99.90
59301;DHT22;45073;52.740;6.784;2023-09-19T07:05:35;14.30;99.90
59301;DHT22;45073;52.740;6.784;2023-09-19T07:08:08;14.30;99.90
59301;DHT22;45073;52.740;6.784;2023-09-19T07:10:39;14.40;99.90
59301;DHT22;45073;52.740;6.784;2023-09-19T07:13:14;14.50;99.90
59301;DHT22;45073;52.740;6.784;2023-09-19T07:15:43;14.60;99.90
59301;DHT22;45073;52.740;6.784;2023-09-19T07:18:13;14.60;99.90
59301;DHT22;45073;52.740;6.784;2023-09-19T07:20:40;14.70;99.90
59301;DHT22;45073;52.740;6.784;2023-09-19T07:23:11;14.70;99.90
59301;DHT22;45073;52.740;6.784;2023-09-19T07:25:39;14.70;99.90
59301;DHT22;45073;52.740;6.784;2023-09-19T07:28:05;14.70;99.90
59301;DHT22;45073;52.740;6.784;2023-09-19T07:30:30;14.90;99.90
59301;DHT22;45073;52.740;6.784;2023-09-19T07:32:56;15.00;99.90
59301;DHT22;45073;52.740;6.784;2023-09-19T07:35:22;15.00;99.90
59301;DHT22;45073;52.740;6.784;2023-09-19T07:37:49;15.00;99.90
59301;DHT22;45073;52.740;6.784;2023-09-19T07:40:18;15.00;99.90
59301;DHT22;45073;52.740;6.784;2023-09-19T07:42:45;15.00;99.90
59301;DHT22;45073;52.740;6.784;2023-09-19T07:45:12;15.10;99.90
59301;DHT22;45073;52.740;6.784;2023-09-19T07:47:46;15.20;99.90
59301;DHT22;45073;52.740;6.784;2023-09-19T07:50:12;15.20;99.90
59301;DHT22;45073;52.740;6.784;2023-09-19T07:52:38;15.30;99.90
59301;DHT22;45073;52.740;6.784;2023-09-19T07:55:06;15.40;99.90
59301;DHT22;45073;52.740;6.784;2023-09-19T07:57:35;15.40;99.90
59301;DHT22;45073;52.740;6.784;2023-09-19T08:00:01;15.60;99.90
59301;DHT22;45073;52.740;6.784;2023-09-19T08:02:33;15.60;99.90
59301;DHT22;45073;52.740;6.784;2023-09-19T08:04:59;15.60;99.90
59301;DHT22;45073;52.740;6.784;2023-09-19T08:07:26;15.70;99.90
59301;DHT22;45073;52.740;6.784;2023-09-19T08:09:51;15.70;99.90
59301;DHT22;45073;52.740;6.784;2023-09-19T08:12:17;15.70;99.90
59301;DHT22;45073;52.740;6.784;2023-09-19T08:14:42;15.80;99.90
59301;DHT22;45073;52.740;6.784;2023-09-19T08:17:09;15.70;99.90
59301;DHT22;45073;52.740;6.784;2023-09-19T08:19:34;15.80;99.90
59301;DHT22;45073;52.740;6.784;2023-09-19T08:22:00;15.90;99.90
59301;DHT22;45073;52.740;6.784;2023-09-19T08:24:27;16.00;99.90
59301;DHT22;45073;52.740;6.784;2023-09-19T08:26:57;15.90;99.90
59301;DHT22;45073;52.740;6.784;2023-09-19T08:29:23;16.00;99.90
59301;DHT22;45073;52.740;6.784;2023-09-19T08:31:59;16.00;99.90
59301;DHT22;45073;52.740;6.784;2023-09-19T08:34:25;16.10;99.90
59301;DHT22;45073;52.740;6.784;2023-09-19T08:36:54;16.10;99.90
59301;DHT22;45073;52.740;6.784;2023-09-19T08:39:24;16.10;99.90
59301;DHT22;45073;52.740;6.784;2023-09-19T08:41:57;16.10;99.90
59301;DHT22;45073;52.740;6.784;2023-09-19T08:44:24;16.20;99.90
59301;DHT22;45073;52.740;6.784;2023-09-19T08:46:54;16.20;99.90
59301;DHT22;45073;52.740;6.784;2023-09-19T08:49:49;16.20;99.90
59301;DHT22;45073;52.740;6.784;2023-09-19T08:52:32;16.30;99.90
59301;DHT22;45073;52.740;6.784;2023-09-19T08:55:02;16.40;99.90
59301;DHT22;45073;52.740;6.784;2023-09-19T08:57:36;16.50;99.90
59301;DHT22;45073;52.740;6.784;2023-09-19T09:00:08;16.50;99.90
59301;DHT22;45073;52.740;6.784;2023-09-19T09:02:38;16.50;99.90
59301;DHT22;45073;52.740;6.784;2023-09-19T09:05:10;16.50;99.90
59301;DHT22;45073;52.740;6.784;2023-09-19T09:07:37;16.50;99.90
59301;DHT22;45073;52.740;6.784;2023-09-19T09:10:04;16.60;99.90
59301;DHT22;45073;52.740;6.784;2023-09-19T09:12:30;16.60;99.90
59301;DHT22;45073;52.740;6.784;2023-09-19T09:14:56;16.60;99.90
59301;DHT22;45073;52.740;6.784;2023-09-19T09:17:26;16.70;99.90
59301;DHT22;45073;52.740;6.784;2023-09-19T09:19:54;16.90;99.90
59301;DHT22;45073;52.740;6.784;2023-09-19T09:22:20;16.90;99.90
59301;DHT22;45073;52.740;6.784;2023-09-19T09:24:54;17.00;99.90
59301;DHT22;45073;52.740;6.784;2023-09-19T09:27:20;17.10;99.90
59301;DHT22;45073;52.740;6.784;2023-09-19T09:29:47;17.20;99.90
59301;DHT22;45073;52.740;6.784;2023-09-19T09:32:20;17.20;99.90
59301;DHT22;45073;52.740;6.784;2023-09-19T09:34:55;17.20;99.90
59301;DHT22;45073;52.740;6.784;2023-09-19T09:37:22;17.30;99.90
59301;DHT22;45073;52.740;6.784;2023-09-19T09:42:33;17.30;99.90
59301;DHT22;45073;52.740;6.784;2023-09-19T09:45:22;17.40;99.90
59301;DHT22;45073;52.740;6.784;2023-09-19T09:48:03;17.50;99.90
59301;DHT22;45073;52.740;6.784;2023-09-19T09:50:33;17.50;99.90
59301;DHT22;45073;52.740;6.784;2023-09-19T09:53:28;17.50;99.90
59301;DHT22;45073;52.740;6.784;2023-09-19T09:58:30;17.70;99.90
59301;DHT22;45073;52.740;6.784;2023-09-19T10:00:58;17.70;99.90
59301;DHT22;45073;52.740;6.784;2023-09-19T10:03:33;17.80;99.90
59301;DHT22;45073;52.740;6.784;2023-09-19T10:06:00;17.80;99.90
59301;DHT22;45073;52.740;6.784;2023-09-19T10:08:32;17.80;99.90
59301;DHT22;45073;52.740;6.784;2023-09-19T10:10:58;17.80;99.90
59301;DHT22;45073;52.740;6.784;2023-09-19T10:13:31;17.80;99.90
59301;DHT22;45073;52.740;6.784;2023-09-19T10:16:06;17.90;99.90
59301;DHT22;45073;52.740;6.784;2023-09-19T10:18:36;17.80;99.90
59301;DHT22;45073;52.740;6.784;2023-09-19T10:21:04;17.80;99.90
59301;DHT22;45073;52.740;6.784;2023-09-19T10:23:32;17.80;99.90
59301;DHT22;45073;52.740;6.784;2023-09-19T10:26:01;17.80;99.90
59301;DHT22;45073;52.740;6.784;2023-09-19T10:28:28;17.90;99.90
59301;DHT22;45073;52.740;6.784;2023-09-19T10:30:55;17.90;99.90
59301;DHT22;45073;52.740;6.784;2023-09-19T10:33:24;18.00;99.90
59301;DHT22;45073;52.740;6.784;2023-09-19T10:35:53;18.10;99.90
59301;DHT22;45073;52.740;6.784;2023-09-19T10:38:24;18.20;99.90
59301;DHT22;45073;52.740;6.784;2023-09-19T10:40:52;18.20;99.90
59301;DHT22;45073;52.740;6.784;2023-09-19T10:43:19;18.30;99.90
59301;DHT22;45073;52.740;6.784;2023-09-19T10:45:47;18.30;99.90
59301;DHT22;45073;52.740;6.784;2023-09-19T10:48:19;18.30;99.90
59301;DHT22;45073;52.740;6.784;2023-09-19T10:53:26;18.20;99.90
59301;DHT22;45073;52.740;6.784;2023-09-19T10:55:57;18.10;99.90
59301;DHT22;45073;52.740;6.784;2023-09-19T10:58:27;18.10;99.90
59301;DHT22;45073;52.740;6.784;2023-09-19T11:00:58;18.10;99.90
59301;DHT22;45073;52.740;6.784;2023-09-19T11:03:41;18.20;99.90
59301;DHT22;45073;52.740;6.784;2023-09-19T11:06:17;18.10;99.90
59301;DHT22;45073;52.740;6.784;2023-09-19T11:08:58;18.00;99.90
59301;DHT22;45073;52.740;6.784;2023-09-19T11:11:48;18.00;99.90
59301;DHT22;45073;52.740;6.784;2023-09-19T11:30:47;18.20;99.90
59301;DHT22;45073;52.740;6.784;2023-09-19T11:33:32;18.10;99.90
59301;DHT22;45073;52.740;6.784;2023-09-19T11:36:14;18.10;99.90
59301;DHT22;45073;52.740;6.784;2023-09-19T11:43:45;18.50;99.90
59301;DHT22;45073;52.740;6.784;2023-09-19T11:46:12;18.70;99.90
59301;DHT22;45073;52.740;6.784;2023-09-19T11:48:43;18.80;99.90
59301;DHT22;45073;52.740;6.784;2023-09-19T11:51:17;18.90;99.90
59301;DHT22;45073;52.740;6.784;2023-09-19T11:53:56;18.80;99.90
59301;DHT22;45073;52.740;6.784;2023-09-19T11:56:26;18.80;99.90
59301;DHT22;45073;52.740;6.784;2023-09-19T11:58:57;18.80;99.90
59301;DHT22;45073;52.740;6.784;2023-09-19T12:01:32;18.70;99.90
59301;DHT22;45073;52.740;6.784;2023-09-19T12:04:00;18.70;99.90
59301;DHT22;45073;52.740;6.784;2023-09-19T12:06:28;18.60;99.90
59301;DHT22;45073;52.740;6.784;2023-09-19T12:08:55;18.60;99.90
59301;DHT22;45073;52.740;6.784;2023-09-19T12:11:23;18.50;99.90
59301;DHT22;45073;52.740;6.784;2023-09-19T12:13:50;18.50;99.90
59301;DHT22;45073;52.740;6.784;2023-09-19T12:16:19;18.40;99.90
59301;DHT22;45073;52.740;6.784;2023-09-19T12:18:49;18.40;99.90
59301;DHT22;45073;52.740;6.784;2023-09-19T12:21:42;18.50;99.90
59301;DHT22;45073;52.740;6.784;2023-09-19T12:24:13;18.60;99.90
59301;DHT22;45073;52.740;6.784;2023-09-19T12:26:41;18.80;99.90
59301;DHT22;45073;52.740;6.784;2023-09-19T12:29:18;18.90;99.90
59301;DHT22;45073;52.740;6.784;2023-09-19T12:31:55;19.10;99.90
59301;DHT22;45073;52.740;6.784;2023-09-19T12:34:27;19.30;99.90
59301;DHT22;45073;52.740;6.784;2023-09-19T12:37:15;19.50;99.90
59301;DHT22;45073;52.740;6.784;2023-09-19T12:39:46;19.50;99.90
59301;DHT22;45073;52.740;6.784;2023-09-19T12:42:15;19.30;99.90
59301;DHT22;45073;52.740;6.784;2023-09-19T12:44:43;19.10;99.90
59301;DHT22;45073;52.740;6.784;2023-09-19T12:47:14;19.00;99.90
59301;DHT22;45073;52.740;6.784;2023-09-19T12:50:13;19.00;99.90
59301;DHT22;45073;52.740;6.784;2023-09-19T12:52:44;19.00;99.90
59301;DHT22;45073;52.740;6.784;2023-09-19T12:55:22;19.00;99.90
59301;DHT22;45073;52.740;6.784;2023-09-19T13:00:40;19.20;99.90
59301;DHT22;45073;52.740;6.784;2023-09-19T13:03:16;19.20;99.90
59301;DHT22;45073;52.740;6.784;2023-09-19T13:08:23;19.10;99.90
59301;DHT22;45073;52.740;6.784;2023-09-19T13:11:12;19.00;99.90
59301;DHT22;45073;52.740;6.784;2023-09-19T13:14:12;19.00;99.90
59301;DHT22;45073;52.740;6.784;2023-09-19T13:16:56;18.90;99.90
59301;DHT22;45073;52.740;6.784;2023-09-19T13:19:42;18.80;99.90
59301;DHT22;45073;52.740;6.784;2023-09-19T13:25:16;18.70;99.90
59301;DHT22;45073;52.740;6.784;2023-09-19T13:27:52;18.70;99.90
59301;DHT22;45073;52.740;6.784;2023-09-19T13:30:19;18.70;99.90
59301;DHT22;45073;52.740;6.784;2023-09-19T13:32:45;18.70;99.90
59301;DHT22;45073;52.740;6.784;2023-09-19T13:35:13;18.80;99.90
59301;DHT22;45073;52.740;6.784;2023-09-19T13:37:40;18.70;99.90
59301;DHT22;45073;52.740;6.784;2023-09-19T13:40:12;18.70;99.90
59301;DHT22;45073;52.740;6.784;2023-09-19T13:42:38;18.60;99.90
59301;DHT22;45073;52.740;6.784;2023-09-19T13:45:04;18.60;99.90
59301;DHT22;45073;52.740;6.784;2023-09-19T13:47:30;18.60;99.90
59301;DHT22;45073;52.740;6.784;2023-09-19T13:49:56;18.60;99.90
59301;DHT22;45073;52.740;6.784;2023-09-19T13:52:23;18.60;99.90
59301;DHT22;45073;52.740;6.784;2023-09-19T13:54:51;18.60;99.90
59301;DHT22;45073;52.740;6.784;2023-09-19T13:57:18;18.60;99.90
59301;DHT22;45073;52.740;6.784;2023-09-19T13:59:44;18.70;99.90
59301;DHT22;45073;52.740;6.784;2023-09-19T14:02:09;18.70;99.90
59301;DHT22;45073;52.740;6.784;2023-09-19T14:04:35;18.70;99.90
59301;DHT22;45073;52.740;6.784;2023-09-19T14:07:01;18.80;99.90
59301;DHT22;45073;52.740;6.784;2023-09-19T14:09:27;18.80;99.90
59301;DHT22;45073;52.740;6.784;2023-09-19T14:11:53;18.80;99.90
59301;DHT22;45073;52.740;6.784;2023-09-19T14:14:19;18.80;99.90
59301;DHT22;45073;52.740;6.784;2023-09-19T14:16:47;18.80;99.90
59301;DHT22;45073;52.740;6.784;2023-09-19T14:19:13;18.80;99.90
59301;DHT22;45073;52.740;6.784;2023-09-19T14:21:40;18.80;99.90
59301;DHT22;45073;52.740;6.784;2023-09-19T14:24:06;18.80;99.90
59301;DHT22;45073;52.740;6.784;2023-09-19T14:26:38;18.80;99.90
59301;DHT22;45073;52.740;6.784;2023-09-19T14:29:05;18.80;99.90
59301;DHT22;45073;52.740;6.784;2023-09-19T14:31:33;18.70;99.90
59301;DHT22;45073;52.740;6.784;2023-09-19T14:33:59;18.70;99.90
59301;DHT22;45073;52.740;6.784;2023-09-19T14:36:25;18.70;99.90
59301;DHT22;45073;52.740;6.784;2023-09-19T14:38:55;18.70;99.90
59301;DHT22;45073;52.740;6.784;2023-09-19T14:41:21;18.80;99.90
59301;DHT22;45073;52.740;6.784;2023-09-19T14:43:48;18.80;99.90
59301;DHT22;45073;52.740;6.784;2023-09-19T14:46:14;18.80;99.90
59301;DHT22;45073;52.740;6.784;2023-09-19T14:48:40;18.80;99.90
59301;DHT22;45073;52.740;6.784;2023-09-19T14:51:09;18.80;99.90
59301;DHT22;45073;52.740;6.784;2023-09-19T14:53:35;18.80;99.90
59301;DHT22;45073;52.740;6.784;2023-09-19T14:56:02;18.80;99.90
59301;DHT22;45073;52.740;6.784;2023-09-19T14:58:31;18.80;99.90
59301;DHT22;45073;52.740;6.784;2023-09-19T15:01:04;18.80;99.90
59301;DHT22;45073;52.740;6.784;2023-09-19T15:03:34;18.80;99.90
59301;DHT22;45073;52.740;6.784;2023-09-19T15:06:05;18.80;99.90
59301;DHT22;45073;52.740;6.784;2023-09-19T15:08:35;18.80;99.90
59301;DHT22;45073;52.740;6.784;2023-09-19T15:11:05;18.80;99.90
59301;DHT22;45073;52.740;6.784;2023-09-19T15:13:32;18.80;99.90
59301;DHT22;45073;52.740;6.784;2023-09-19T15:16:06;18.80;99.90
59301;DHT22;45073;52.740;6.784;2023-09-19T15:18:35;18.80;99.90
59301;DHT22;45073;52.740;6.784;2023-09-19T15:21:06;18.80;99.90
59301;DHT22;45073;52.740;6.784;2023-09-19T15:23:36;18.80;99.90
59301;DHT22;45073;52.740;6.784;2023-09-19T15:26:03;18.90;99.90
59301;DHT22;45073;52.740;6.784;2023-09-19T15:28:29;18.90;99.90
59301;DHT22;45073;52.740;6.784;2023-09-19T15:31:06;18.90;99.90
59301;DHT22;45073;52.740;6.784;2023-09-19T15:33:33;18.90;99.90
59301;DHT22;45073;52.740;6.784;2023-09-19T15:36:10;18.80;99.90
59301;DHT22;45073;52.740;6.784;2023-09-19T15:39:04;18.90;99.90
59301;DHT22;45073;52.740;6.784;2023-09-19T15:41:40;18.80;99.90
59301;DHT22;45073;52.740;6.784;2023-09-19T15:44:17;18.80;99.90
59301;DHT22;45073;52.740;6.784;2023-09-19T15:46:43;18.90;99.90
59301;DHT22;45073;52.740;6.784;2023-09-19T15:49:09;18.90;99.90
59301;DHT22;45073;52.740;6.784;2023-09-19T15:51:35;18.80;99.90
59301;DHT22;45073;52.740;6.784;2023-09-19T15:54:09;18.80;99.90
59301;DHT22;45073;52.740;6.784;2023-09-19T15:56:36;18.80;99.90
59301;DHT22;45073;52.740;6.784;2023-09-19T15:59:02;18.80;99.90
59301;DHT22;45073;52.740;6.784;2023-09-19T16:01:28;18.80;99.90
59301;DHT22;45073;52.740;6.784;2023-09-19T16:03:54;18.80;99.90
59301;DHT22;45073;52.740;6.784;2023-09-19T16:06:26;18.80;99.90
59301;DHT22;45073;52.740;6.784;2023-09-19T16:08:54;18.80;99.90
59301;DHT22;45073;52.740;6.784;2023-09-19T16:11:21;18.80;99.90
59301;DHT22;45073;52.740;6.784;2023-09-19T16:13:48;18.80;99.90
59301;DHT22;45073;52.740;6.784;2023-09-19T16:16:15;18.80;99.90
59301;DHT22;45073;52.740;6.784;2023-09-19T16:18:52;18.80;99.90
59301;DHT22;45073;52.740;6.784;2023-09-19T16:21:21;18.70;99.90
59301;DHT22;45073;52.740;6.784;2023-09-19T16:23:48;18.70;99.90
59301;DHT22;45073;52.740;6.784;2023-09-19T16:26:15;18.70;99.90
59301;DHT22;45073;52.740;6.784;2023-09-19T16:28:41;18.70;99.90
59301;DHT22;45073;52.740;6.784;2023-09-19T16:31:08;18.70;99.90
59301;DHT22;45073;52.740;6.784;2023-09-19T16:33:35;18.60;99.90
59301;DHT22;45073;52.740;6.784;2023-09-19T16:36:02;18.60;99.90
59301;DHT22;45073;52.740;6.784;2023-09-19T16:38:28;18.60;99.90
59301;DHT22;45073;52.740;6.784;2023-09-19T16:40:58;18.60;99.90
59301;DHT22;45073;52.740;6.784;2023-09-19T16:43:27;18.60;99.90
59301;DHT22;45073;52.740;6.784;2023-09-19T16:45:58;18.60;99.90